sensor_id;sensor_type;location;lat;lon;timestamp;temperature;humidity
27797;DHT22;15177;50.844;4.412;2023-04-25T00:01:35;10.30;99.90
27797;DHT22;15177;50.844;4.412;2023-04-25T00:04:02;10.30;99.90
27797;DHT22;15177;50.844;4.412;2023-04-25T00:06:29;10.40;99.90
27797;DHT22;15177;50.844;4.412;2023-04-25T00:08:57;10.40;99.90
27797;DHT22;15177;50.844;4.412;2023-04-25T00:11:23;10.30;99.90
27797;DHT22;15177;50.844;4.412;2023-04-25T00:13:49;10.40;99.90
27797;DHT22;15177;50.844;4.412;2023-04-25T00:16:16;10.40;99.90
27797;DHT22;15177;50.844;4.412;2023-04-25T00:18:42;10.50;99.90
27797;DHT22;15177;50.844;4.412;2023-04-25T00:21:08;10.40;99.90
27797;DHT22;15177;50.844;4.412;2023-04-25T00:23:34;10.30;99.90
27797;DHT22;15177;50.844;4.412;2023-04-25T00:26:02;10.30;99.90
27797;DHT22;15177;50.844;4.412;2023-04-25T00:28:28;10.30;99.90
27797;DHT22;15177;50.844;4.412;2023-04-25T00:30:53;10.40;99.90
27797;DHT22;15177;50.844;4.412;2023-04-25T00:33:20;10.30;99.90
27797;DHT22;15177;50.844;4.412;2023-04-25T00:35:47;10.20;99.90
27797;DHT22;15177;50.844;4.412;2023-04-25T00:38:13;10.30;99.90
27797;DHT22;15177;50.844;4.412;2023-04-25T00:40:39;10.30;99.90
27797;DHT22;15177;50.844;4.412;2023-04-25T00:43:04;10.30;99.90
27797;DHT22;15177;50.844;4.412;2023-04-25T00:45:30;10.40;99.90
27797;DHT22;15177;50.844;4.412;2023-04-25T00:47:56;10.20;99.90
27797;DHT22;15177;50.844;4.412;2023-04-25T00:50:23;10.20;99.90
27797;DHT22;15177;50.844;4.412;2023-04-25T00:52:50;10.10;99.90
27797;DHT22;15177;50.844;4.412;2023-04-25T00:55:15;10.30;99.90
27797;DHT22;15177;50.844;4.412;2023-04-25T00:57:42;10.20;99.90
27797;DHT22;15177;50.844;4.412;2023-04-25T01:00:08;10.20;99.90
27797;DHT22;15177;50.844;4.412;2023-04-25T01:02:35;10.10;99.90
27797;DHT22;15177;50.844;4.412;2023-04-25T01:05:01;10.10;99.90
27797;DHT22;15177;50.844;4.412;2023-04-25T01:07:27;10.10;99.90
27797;DHT22;15177;50.844;4.412;2023-04-25T01:09:53;10.20;99.90
27797;DHT22;15177;50.844;4.412;2023-04-25T01:12:19;10.10;99.90
27797;DHT22;15177;50.844;4.412;2023-04-25T01:14:45;10.10;99.90
27797;DHT22;15177;50.844;4.412;2023-04-25T01:17:11;10.00;99.90
27797;DHT22;15177;50.844;4.412;2023-04-25T01:19:37;10.10;99.90
27797;DHT22;15177;50.844;4.412;2023-04-25T01:22:03;10.10;99.90
27797;DHT22;15177;50.844;4.412;2023-04-25T01:24:31;10.30;99.90
27797;DHT22;15177;50.844;4.412;2023-04-25T01:26:58;10.40;99.90
27797;DHT22;15177;50.844;4.412;2023-04-25T01:29:24;10.40;99.90
27797;DHT22;15177;50.844;4.412;2023-04-25T01:31:51;10.30;99.90
27797;DHT22;15177;50.844;4.412;2023-04-25T01:34:17;10.30;99.90
27797;DHT22;15177;50.844;4.412;2023-04-25T01:36:43;10.30;99.90
27797;DHT22;15177;50.844;4.412;2023-04-25T01:39:09;10.30;99.90
27797;DHT22;15177;50.844;4.412;2023-04-25T01:41:36;10.40;99.90
27797;DHT22;15177;50.844;4.412;2023-04-25T01:44:02;10.50;99.90
27797;DHT22;15177;50.844;4.412;2023-04-25T01:46:28;10.40;99.90
27797;DHT22;15177;50.844;4.412;2023-04-25T01:48:54;10.30;99.90
27797;DHT22;15177;50.844;4.412;2023-04-25T01:51:20;10.20;99.90
27797;DHT22;15177;50.844;4.412;2023-04-25T01:53:46;10.20;99.90
27797;DHT22;15177;50.844;4.412;2023-04-25T01:56:12;10.20;99.90
27797;DHT22;15177;50.844;4.412;2023-04-25T01:58:38;10.10;99.90
27797;DHT22;15177;50.844;4.412;2023-04-25T02:01:03;9.90;99.90
27797;DHT22;15177;50.844;4.412;2023-04-25T02:03:30;9.80;99.90
27797;DHT22;15177;50.844;4.412;2023-04-25T02:05:56;9.70;99.90
27797;DHT22;15177;50.844;4.412;2023-04-25T02:08:22;9.70;99.90
27797;DHT22;15177;50.844;4.412;2023-04-25T02:10:47;9.70;99.90
27797;DHT22;15177;50.844;4.412;2023-04-25T02:13:14;9.70;99.90
27797;DHT22;15177;50.844;4.412;2023-04-25T02:15:41;9.50;99.90
27797;DHT22;15177;50.844;4.412;2023-04-25T02:18:07;9.50;99.90
27797;DHT22;15177;50.844;4.412;2023-04-25T02:20:32;9.50;99.90
27797;DHT22;15177;50.844;4.412;2023-04-25T02:22:58;9.50;99.90
27797;DHT22;15177;50.844;4.412;2023-04-25T02:25:24;9.40;99.90
27797;DHT22;15177;50.844;4.412;2023-04-25T02:27:51;9.30;99.90
27797;DHT22;15177;50.844;4.412;2023-04-25T02:30:17;9.30;99.90
27797;DHT22;15177;50.844;4.412;2023-04-25T02:32:42;9.40;99.90
27797;DHT22;15177;50.844;4.412;2023-04-25T02:35:10;9.50;99.90
27797;DHT22;15177;50.844;4.412;2023-04-25T02:37:38;9.50;99.90
27797;DHT22;15177;50.844;4.412;2023-04-25T02:40:06;9.50;99.90
27797;DHT22;15177;50.844;4.412;2023-04-25T02:42:33;9.60;99.90
27797;DHT22;15177;50.844;4.412;2023-04-25T02:44:59;9.60;99.90
27797;DHT22;15177;50.844;4.412;2023-04-25T02:47:25;9.50;99.90
27797;DHT22;15177;50.844;4.412;2023-04-25T02:49:51;9.60;99.90
27797;DHT22;15177;50.844;4.412;2023-04-25T02:52:17;9.60;99.90
27797;DHT22;15177;50.844;4.412;2023-04-25T02:54:43;9.50;99.90
27797;DHT22;15177;50.844;4.412;2023-04-25T02:57:08;9.50;99.90
27797;DHT22;15177;50.844;4.412;2023-04-25T02:59:36;9.60;99.90
27797;DHT22;15177;50.844;4.412;2023-04-25T03:02:02;9.60;99.90
27797;DHT22;15177;50.844;4.412;2023-04-25T03:04:28;9.60;99.90
27797;DHT22;15177;50.844;4.412;2023-04-25T03:06:53;9.80;99.90
27797;DHT22;15177;50.844;4.412;2023-04-25T03:09:19;9.70;99.90
27797;DHT22;15177;50.844;4.412;2023-04-25T03:11:45;9.70;99.90
27797;DHT22;15177;50.844;4.412;2023-04-25T03:14:11;9.80;99.90
27797;DHT22;15177;50.844;4.412;2023-04-25T03:16:37;9.60;99.90
27797;DHT22;15177;50.844;4.412;2023-04-25T03:19:04;9.70;99.90
27797;DHT22;15177;50.844;4.412;2023-04-25T03:21:32;9.70;99.90
27797;DHT22;15177;50.844;4.412;2023-04-25T03:23:58;9.60;99.90
27797;DHT22;15177;50.844;4.412;2023-04-25T03:26:24;9.50;99.90
27797;DHT22;15177;50.844;4.412;2023-04-25T03:28:50;9.40;99.90
27797;DHT22;15177;50.844;4.412;2023-04-25T03:31:17;9.40;99.90
27797;DHT22;15177;50.844;4.412;2023-04-25T03:33:43;9.40;99.90
27797;DHT22;15177;50.844;4.412;2023-04-25T03:36:09;9.30;99.90
27797;DHT22;15177;50.844;4.412;2023-04-25T03:38:35;9.20;99.90
27797;DHT22;15177;50.844;4.412;2023-04-25T03:41:01;9.10;99.90
27797;DHT22;15177;50.844;4.412;2023-04-25T03:43:27;9.10;99.90
27797;DHT22;15177;50.844;4.412;2023-04-25T03:45:54;9.10;99.90
27797;DHT22;15177;50.844;4.412;2023-04-25T03:48:20;9.20;99.90
27797;DHT22;15177;50.844;4.412;2023-04-25T03:50:50;9.20;99.90
27797;DHT22;15177;50.844;4.412;2023-04-25T03:53:15;9.20;99.90
27797;DHT22;15177;50.844;4.412;2023-04-25T03:55:41;9.00;99.90
27797;DHT22;15177;50.844;4.412;2023-04-25T03:58:07;9.00;99.90
27797;DHT22;15177;50.844;4.412;2023-04-25T04:00:35;9.00;99.90
27797;DHT22;15177;50.844;4.412;2023-04-25T04:03:01;9.00;99.90
27797;DHT22;15177;50.844;4.412;2023-04-25T04:05:28;9.00;99.90
27797;DHT22;15177;50.844;4.412;2023-04-25T04:07:54;9.00;99.90
27797;DHT22;15177;50.844;4.412;2023-04-25T04:10:21;9.00;99.90
27797;DHT22;15177;50.844;4.412;2023-04-25T04:12:47;8.90;99.90
27797;DHT22;15177;50.844;4.412;2023-04-25T04:15:13;8.90;99.90
27797;DHT22;15177;50.844;4.412;2023-04-25T04:17:38;9.00;99.90
27797;DHT22;15177;50.844;4.412;2023-04-25T04:20:05;9.00;99.90
27797;DHT22;15177;50.844;4.412;2023-04-25T04:22:31;9.10;99.90
27797;DHT22;15177;50.844;4.412;2023-04-25T04:24:57;9.10;99.90
27797;DHT22;15177;50.844;4.412;2023-04-25T04:27:23;9.10;99.90
27797;DHT22;15177;50.844;4.412;2023-04-25T04:29:51;9.00;99.90
27797;DHT22;15177;50.844;4.412;2023-04-25T04:32:18;9.00;99.90
27797;DHT22;15177;50.844;4.412;2023-04-25T04:34:44;9.00;99.90
27797;DHT22;15177;50.844;4.412;2023-04-25T04:37:10;9.20;99.90
27797;DHT22;15177;50.844;4.412;2023-04-25T04:39:36;9.20;99.90
27797;DHT22;15177;50.844;4.412;2023-04-25T04:42:02;9.20;99.90
27797;DHT22;15177;50.844;4.412;2023-04-25T04:44:29;9.10;99.90
27797;DHT22;15177;50.844;4.412;2023-04-25T04:46:54;9.30;99.90
27797;DHT22;15177;50.844;4.412;2023-04-25T04:49:21;9.30;99.90
27797;DHT22;15177;50.844;4.412;2023-04-25T04:51:46;9.30;99.90
27797;DHT22;15177;50.844;4.412;2023-04-25T04:54:13;9.40;99.90
27797;DHT22;15177;50.844;4.412;2023-04-25T04:56:39;9.40;99.90
27797;DHT22;15177;50.844;4.412;2023-04-25T04:59:04;9.40;99.90
27797;DHT22;15177;50.844;4.412;2023-04-25T05:01:30;9.40;99.90
27797;DHT22;15177;50.844;4.412;2023-04-25T05:03:56;9.30;99.90
27797;DHT22;15177;50.844;4.412;2023-04-25T05:06:26;9.30;99.90
27797;DHT22;15177;50.844;4.412;2023-04-25T05:08:53;9.30;99.90
27797;DHT22;15177;50.844;4.412;2023-04-25T05:11:19;9.40;99.90
27797;DHT22;15177;50.844;4.412;2023-04-25T05:13:46;9.30;99.90
27797;DHT22;15177;50.844;4.412;2023-04-25T05:16:12;9.20;99.90
27797;DHT22;15177;50.844;4.412;2023-04-25T05:18:39;9.10;99.90
27797;DHT22;15177;50.844;4.412;2023-04-25T05:21:05;9.00;99.90
27797;DHT22;15177;50.844;4.412;2023-04-25T05:23:31;8.90;99.90
27797;DHT22;15177;50.844;4.412;2023-04-25T05:25:57;8.90;99.90
27797;DHT22;15177;50.844;4.412;2023-04-25T05:28:25;9.00;99.90
27797;DHT22;15177;50.844;4.412;2023-04-25T05:30:54;8.90;99.90
27797;DHT22;15177;50.844;4.412;2023-04-25T05:33:19;8.70;99.90
27797;DHT22;15177;50.844;4.412;2023-04-25T05:35:45;8.70;99.90
27797;DHT22;15177;50.844;4.412;2023-04-25T05:38:14;8.80;99.90
27797;DHT22;15177;50.844;4.412;2023-04-25T05:40:40;8.90;99.90
27797;DHT22;15177;50.844;4.412;2023-04-25T05:43:07;8.90;99.90
27797;DHT22;15177;50.844;4.412;2023-04-25T05:45:33;8.90;99.90
27797;DHT22;15177;50.844;4.412;2023-04-25T05:48:01;8.80;99.90
27797;DHT22;15177;50.844;4.412;2023-04-25T05:50:27;8.80;99.90
27797;DHT22;15177;50.844;4.412;2023-04-25T05:52:52;8.80;99.90
27797;DHT22;15177;50.844;4.412;2023-04-25T05:55:18;9.00;99.90
27797;DHT22;15177;50.844;4.412;2023-04-25T05:57:45;9.10;99.90
27797;DHT22;15177;50.844;4.412;2023-04-25T06:00:14;9.20;99.90
27797;DHT22;15177;50.844;4.412;2023-04-25T06:02:41;9.40;99.90
27797;DHT22;15177;50.844;4.412;2023-04-25T06:05:08;9.40;99.90
27797;DHT22;15177;50.844;4.412;2023-04-25T06:07:34;9.40;99.90
27797;DHT22;15177;50.844;4.412;2023-04-25T06:10:00;9.50;99.90
27797;DHT22;15177;50.844;4.412;2023-04-25T06:12:27;9.50;99.90
27797;DHT22;15177;50.844;4.412;2023-04-25T06:14:52;9.50;99.90
27797;DHT22;15177;50.844;4.412;2023-04-25T06:17:18;9.50;99.90
27797;DHT22;15177;50.844;4.412;2023-04-25T06:19:44;9.60;99.90
27797;DHT22;15177;50.844;4.412;2023-04-25T06:22:10;9.70;99.90
27797;DHT22;15177;50.844;4.412;2023-04-25T06:24:35;9.60;99.90
27797;DHT22;15177;50.844;4.412;2023-04-25T06:27:01;9.80;99.90
27797;DHT22;15177;50.844;4.412;2023-04-25T06:29:27;9.90;99.90
27797;DHT22;15177;50.844;4.412;2023-04-25T06:31:53;9.90;99.90
27797;DHT22;15177;50.844;4.412;2023-04-25T06:34:18;9.80;99.90
27797;DHT22;15177;50.844;4.412;2023-04-25T06:36:44;9.80;99.90
27797;DHT22;15177;50.844;4.412;2023-04-25T06:39:10;9.90;99.90
27797;DHT22;15177;50.844;4.412;2023-04-25T06:41:36;10.00;99.90
27797;DHT22;15177;50.844;4.412;2023-04-25T06:44:02;10.00;99.90
27797;DHT22;15177;50.844;4.412;2023-04-25T06:46:28;10.00;99.90
27797;DHT22;15177;50.844;4.412;2023-04-25T06:48:53;10.10;99.90
27797;DHT22;15177;50.844;4.412;2023-04-25T06:51:19;10.10;99.90
27797;DHT22;15177;50.844;4.412;2023-04-25T06:53:46;10.20;99.90
27797;DHT22;15177;50.844;4.412;2023-04-25T06:56:11;10.20;99.90
27797;DHT22;15177;50.844;4.412;2023-04-25T06:58:37;10.30;99.90
27797;DHT22;15177;50.844;4.412;2023-04-25T07:01:05;10.20;99.90
27797;DHT22;15177;50.844;4.412;2023-04-25T07:03:30;10.10;99.90
27797;DHT22;15177;50.844;4.412;2023-04-25T07:05:56;10.10;99.90
27797;DHT22;15177;50.844;4.412;2023-04-25T07:08:25;10.00;99.90
27797;DHT22;15177;50.844;4.412;2023-04-25T07:10:50;10.00;99.90
27797;DHT22;15177;50.844;4.412;2023-04-25T07:13:16;10.00;99.90
27797;DHT22;15177;50.844;4.412;2023-04-25T07:15:42;10.00;99.90
27797;DHT22;15177;50.844;4.412;2023-04-25T07:18:08;10.00;99.90
27797;DHT22;15177;50.844;4.412;2023-04-25T07:20:34;10.00;99.90
27797;DHT22;15177;50.844;4.412;2023-04-25T07:23:00;10.10;99.90
27797;DHT22;15177;50.844;4.412;2023-04-25T07:25:26;10.10;99.90
27797;DHT22;15177;50.844;4.412;2023-04-25T07:27:53;10.10;99.90
27797;DHT22;15177;50.844;4.412;2023-04-25T07:30:19;10.20;99.90
27797;DHT22;15177;50.844;4.412;2023-04-25T07:32:45;10.20;99.90
27797;DHT22;15177;50.844;4.412;2023-04-25T07:35:10;10.20;99.90
27797;DHT22;15177;50.844;4.412;2023-04-25T07:37:36;10.40;99.90
27797;DHT22;15177;50.844;4.412;2023-04-25T07:40:03;10.40;99.90
27797;DHT22;15177;50.844;4.412;2023-04-25T07:42:30;10.40;99.90
27797;DHT22;15177;50.844;4.412;2023-04-25T07:44:59;10.60;99.90
27797;DHT22;15177;50.844;4.412;2023-04-25T07:47:25;10.70;99.90
27797;DHT22;15177;50.844;4.412;2023-04-25T07:49:51;10.80;99.90
27797;DHT22;15177;50.844;4.412;2023-04-25T07:52:16;10.90;99.90
27797;DHT22;15177;50.844;4.412;2023-04-25T07:54:42;11.10;99.90
27797;DHT22;15177;50.844;4.412;2023-04-25T07:57:09;11.40;99.90
27797;DHT22;15177;50.844;4.412;2023-04-25T07:59:35;11.50;99.90
27797;DHT22;15177;50.844;4.412;2023-04-25T08:02:01;11.60;99.90
27797;DHT22;15177;50.844;4.412;2023-04-25T08:04:28;11.70;99.90
27797;DHT22;15177;50.844;4.412;2023-04-25T08:06:54;11.90;99.90
27797;DHT22;15177;50.844;4.412;2023-04-25T08:09:20;12.00;99.90
27797;DHT22;15177;50.844;4.412;2023-04-25T08:11:47;11.90;99.90
27797;DHT22;15177;50.844;4.412;2023-04-25T08:14:13;11.80;99.90
27797;DHT22;15177;50.844;4.412;2023-04-25T08:16:39;11.80;99.90
27797;DHT22;15177;50.844;4.412;2023-04-25T08:19:06;11.80;99.90
27797;DHT22;15177;50.844;4.412;2023-04-25T08:21:32;11.90;99.90
27797;DHT22;15177;50.844;4.412;2023-04-25T08:23:58;12.30;99.90
27797;DHT22;15177;50.844;4.412;2023-04-25T08:26:28;12.60;99.90
27797;DHT22;15177;50.844;4.412;2023-04-25T08:28:54;13.00;99.90
27797;DHT22;15177;50.844;4.412;2023-04-25T08:31:20;13.00;99.90
27797;DHT22;15177;50.844;4.412;2023-04-25T08:33:46;13.00;99.90
27797;DHT22;15177;50.844;4.412;2023-04-25T08:36:11;13.00;99.90
27797;DHT22;15177;50.844;4.412;2023-04-25T08:38:37;12.90;99.90
27797;DHT22;15177;50.844;4.412;2023-04-25T08:41:06;13.10;99.90
27797;DHT22;15177;50.844;4.412;2023-04-25T08:43:32;13.90;99.90
27797;DHT22;15177;50.844;4.412;2023-04-25T08:46:01;14.30;99.90
27797;DHT22;15177;50.844;4.412;2023-04-25T08:48:32;15.80;99.90
27797;DHT22;15177;50.844;4.412;2023-04-25T08:51:02;17.10;99.90
27797;DHT22;15177;50.844;4.412;2023-04-25T08:53:32;18.00;98.10
27797;DHT22;15177;50.844;4.412;2023-04-25T08:55:59;18.00;94.20
27797;DHT22;15177;50.844;4.412;2023-04-25T08:58:28;17.60;93.80
27797;DHT22;15177;50.844;4.412;2023-04-25T09:00:56;16.90;95.10
27797;DHT22;15177;50.844;4.412;2023-04-25T09:03:22;16.20;96.60
27797;DHT22;15177;50.844;4.412;2023-04-25T09:05:49;15.50;97.50
27797;DHT22;15177;50.844;4.412;2023-04-25T09:08:15;15.20;98.70
27797;DHT22;15177;50.844;4.412;2023-04-25T09:10:41;14.80;99.20
27797;DHT22;15177;50.844;4.412;2023-04-25T09:13:14;14.40;99.80
27797;DHT22;15177;50.844;4.412;2023-04-25T09:15:53;14.30;99.90
27797;DHT22;15177;50.844;4.412;2023-04-25T09:18:27;14.40;99.90
27797;DHT22;15177;50.844;4.412;2023-04-25T09:20:54;14.40;98.80
27797;DHT22;15177;50.844;4.412;2023-04-25T09:23:21;14.30;98.40
27797;DHT22;15177;50.844;4.412;2023-04-25T09:25:49;14.10;98.30
27797;DHT22;15177;50.844;4.412;2023-04-25T09:28:15;13.90;97.80
27797;DHT22;15177;50.844;4.412;2023-04-25T09:30:42;13.80;99.80
27797;DHT22;15177;50.844;4.412;2023-04-25T09:33:12;13.30;99.70
27797;DHT22;15177;50.844;4.412;2023-04-25T09:35:43;12.90;99.90
27797;DHT22;15177;50.844;4.412;2023-04-25T09:38:19;12.50;99.90
27797;DHT22;15177;50.844;4.412;2023-04-25T09:40:46;12.30;99.90
27797;DHT22;15177;50.844;4.412;2023-04-25T09:43:22;12.30;99.90
27797;DHT22;15177;50.844;4.412;2023-04-25T09:45:50;12.30;99.90
27797;DHT22;15177;50.844;4.412;2023-04-25T09:48:20;12.40;99.90
27797;DHT22;15177;50.844;4.412;2023-04-25T09:53:43;14.70;99.90
27797;DHT22;15177;50.844;4.412;2023-04-25T09:56:10;15.70;99.90
27797;DHT22;15177;50.844;4.412;2023-04-25T09:58:38;16.10;98.60
27797;DHT22;15177;50.844;4.412;2023-04-25T10:01:07;16.80;98.30
27797;DHT22;15177;50.844;4.412;2023-04-25T10:03:40;17.70;95.00
27797;DHT22;15177;50.844;4.412;2023-04-25T10:06:14;18.40;92.00
27797;DHT22;15177;50.844;4.412;2023-04-25T10:08:44;17.80;90.60
27797;DHT22;15177;50.844;4.412;2023-04-25T10:11:11;17.10;91.80
27797;DHT22;15177;50.844;4.412;2023-04-25T10:13:40;16.60;94.00
27797;DHT22;15177;50.844;4.412;2023-04-25T10:16:09;16.70;90.90
27797;DHT22;15177;50.844;4.412;2023-04-25T10:18:35;17.10;89.40
27797;DHT22;15177;50.844;4.412;2023-04-25T10:21:04;18.10;87.40
27797;DHT22;15177;50.844;4.412;2023-04-25T10:23:31;18.30;80.00
27797;DHT22;15177;50.844;4.412;2023-04-25T10:25:58;18.90;82.10
27797;DHT22;15177;50.844;4.412;2023-04-25T10:28:24;19.80;75.70
27797;DHT22;15177;50.844;4.412;2023-04-25T10:31:03;20.60;75.10
27797;DHT22;15177;50.844;4.412;2023-04-25T10:33:40;21.10;71.30
27797;DHT22;15177;50.844;4.412;2023-04-25T10:36:18;21.90;63.40
27797;DHT22;15177;50.844;4.412;2023-04-25T10:38:45;21.20;60.00
27797;DHT22;15177;50.844;4.412;2023-04-25T10:41:13;20.10;60.80
27797;DHT22;15177;50.844;4.412;2023-04-25T10:43:43;20.10;63.30
27797;DHT22;15177;50.844;4.412;2023-04-25T10:46:26;20.20;63.20
27797;DHT22;15177;50.844;4.412;2023-04-25T10:48:54;19.20;61.60
27797;DHT22;15177;50.844;4.412;2023-04-25T10:51:32;18.10;62.10
27797;DHT22;15177;50.844;4.412;2023-04-25T10:54:03;17.50;65.50
27797;DHT22;15177;50.844;4.412;2023-04-25T11:01:43;16.70;69.50
27797;DHT22;15177;50.844;4.412;2023-04-25T11:04:33;16.50;71.80
27797;DHT22;15177;50.844;4.412;2023-04-25T11:09:28;16.00;77.30
27797;DHT22;15177;50.844;4.412;2023-04-25T11:11:56;15.90;78.20
27797;DHT22;15177;50.844;4.412;2023-04-25T11:14:22;15.60;80.40
27797;DHT22;15177;50.844;4.412;2023-04-25T11:16:56;15.00;87.30
27797;DHT22;15177;50.844;4.412;2023-04-25T11:19:23;14.50;92.30
27797;DHT22;15177;50.844;4.412;2023-04-25T11:21:49;14.20;93.90
27797;DHT22;15177;50.844;4.412;2023-04-25T11:24:16;14.00;95.30
27797;DHT22;15177;50.844;4.412;2023-04-25T11:26:43;13.70;95.10
27797;DHT22;15177;50.844;4.412;2023-04-25T11:29:17;13.60;96.60
27797;DHT22;15177;50.844;4.412;2023-04-25T11:31:45;13.80;97.50
27797;DHT22;15177;50.844;4.412;2023-04-25T11:34:11;13.80;95.50
27797;DHT22;15177;50.844;4.412;2023-04-25T11:36:38;13.90;96.60
27797;DHT22;15177;50.844;4.412;2023-04-25T11:39:04;14.10;97.20
27797;DHT22;15177;50.844;4.412;2023-04-25T11:41:31;14.30;96.90
27797;DHT22;15177;50.844;4.412;2023-04-25T11:43:57;14.40;97.30
27797;DHT22;15177;50.844;4.412;2023-04-25T11:46:23;14.30;96.70
27797;DHT22;15177;50.844;4.412;2023-04-25T11:48:48;14.10;97.40
27797;DHT22;15177;50.844;4.412;2023-04-25T11:51:18;14.00;97.20
27797;DHT22;15177;50.844;4.412;2023-04-25T11:53:44;14.00;96.90
27797;DHT22;15177;50.844;4.412;2023-04-25T11:56:11;13.90;96.00
27797;DHT22;15177;50.844;4.412;2023-04-25T11:58:57;14.00;95.70
27797;DHT22;15177;50.844;4.412;2023-04-25T12:01:30;14.20;93.50
27797;DHT22;15177;50.844;4.412;2023-04-25T12:03:58;14.30;91.40
27797;DHT22;15177;50.844;4.412;2023-04-25T12:06:28;14.40;92.20
27797;DHT22;15177;50.844;4.412;2023-04-25T12:09:04;14.20;91.90
27797;DHT22;15177;50.844;4.412;2023-04-25T12:11:31;14.50;89.80
27797;DHT22;15177;50.844;4.412;2023-04-25T12:14:02;14.40;90.60
27797;DHT22;15177;50.844;4.412;2023-04-25T12:16:39;14.60;91.50
27797;DHT22;15177;50.844;4.412;2023-04-25T12:19:06;14.60;90.70
27797;DHT22;15177;50.844;4.412;2023-04-25T12:21:32;14.60;91.40
27797;DHT22;15177;50.844;4.412;2023-04-25T12:24:21;14.40;88.90
27797;DHT22;15177;50.844;4.412;2023-04-25T12:27:10;14.20;90.30
27797;DHT22;15177;50.844;4.412;2023-04-25T12:29:35;14.00;87.10
27797;DHT22;15177;50.844;4.412;2023-04-25T12:32:02;13.80;86.70
27797;DHT22;15177;50.844;4.412;2023-04-25T12:34:28;13.80;86.20
27797;DHT22;15177;50.844;4.412;2023-04-25T12:36:55;14.00;88.20
27797;DHT22;15177;50.844;4.412;2023-04-25T12:39:23;14.10;83.60
27797;DHT22;15177;50.844;4.412;2023-04-25T12:41:53;14.30;80.50
27797;DHT22;15177;50.844;4.412;2023-04-25T12:44:22;14.20;79.90
27797;DHT22;15177;50.844;4.412;2023-04-25T12:46:48;13.90;81.90
27797;DHT22;15177;50.844;4.412;2023-04-25T12:49:15;14.10;82.30
27797;DHT22;15177;50.844;4.412;2023-04-25T12:51:41;14.30;83.10
27797;DHT22;15177;50.844;4.412;2023-04-25T12:54:07;14.60;83.40
27797;DHT22;15177;50.844;4.412;2023-04-25T12:56:34;14.80;80.50
27797;DHT22;15177;50.844;4.412;2023-04-25T12:58:59;14.70;81.40
27797;DHT22;15177;50.844;4.412;2023-04-25T13:01:25;14.40;82.30
27797;DHT22;15177;50.844;4.412;2023-04-25T13:03:53;14.10;82.90
27797;DHT22;15177;50.844;4.412;2023-04-25T13:06:19;13.90;86.60
27797;DHT22;15177;50.844;4.412;2023-04-25T13:08:45;13.80;90.50
27797;DHT22;15177;50.844;4.412;2023-04-25T13:11:12;13.50;92.10
27797;DHT22;15177;50.844;4.412;2023-04-25T13:13:40;13.40;93.60
27797;DHT22;15177;50.844;4.412;2023-04-25T13:16:07;13.40;93.60
27797;DHT22;15177;50.844;4.412;2023-04-25T13:18:33;13.60;93.80
27797;DHT22;15177;50.844;4.412;2023-04-25T13:21:01;13.60;92.10
27797;DHT22;15177;50.844;4.412;2023-04-25T13:23:28;13.50;91.30
27797;DHT22;15177;50.844;4.412;2023-04-25T13:25:55;13.60;91.70
27797;DHT22;15177;50.844;4.412;2023-04-25T13:28:25;13.60;92.00
27797;DHT22;15177;50.844;4.412;2023-04-25T13:30:51;13.60;92.20
27797;DHT22;15177;50.844;4.412;2023-04-25T13:33:23;13.40;91.80
27797;DHT22;15177;50.844;4.412;2023-04-25T13:35:49;13.20;90.70
27797;DHT22;15177;50.844;4.412;2023-04-25T13:38:25;13.10;90.60
27797;DHT22;15177;50.844;4.412;2023-04-25T13:40:51;13.20;90.80
27797;DHT22;15177;50.844;4.412;2023-04-25T13:43:19;13.30;90.20
27797;DHT22;15177;50.844;4.412;2023-04-25T13:45:46;13.30;91.20
27797;DHT22;15177;50.844;4.412;2023-04-25T13:48:11;13.30;86.90
27797;DHT22;15177;50.844;4.412;2023-04-25T13:50:37;13.20;80.10
27797;DHT22;15177;50.844;4.412;2023-04-25T13:53:02;13.00;78.80
27797;DHT22;15177;50.844;4.412;2023-04-25T13:55:28;12.90;80.70
27797;DHT22;15177;50.844;4.412;2023-04-25T13:57:54;12.80;85.40
27797;DHT22;15177;50.844;4.412;2023-04-25T14:00:21;13.00;89.30
27797;DHT22;15177;50.844;4.412;2023-04-25T14:02:47;13.10;91.70
27797;DHT22;15177;50.844;4.412;2023-04-25T14:05:12;13.10;93.10
27797;DHT22;15177;50.844;4.412;2023-04-25T14:07:38;13.10;93.50
27797;DHT22;15177;50.844;4.412;2023-04-25T14:10:05;13.10;93.60
27797;DHT22;15177;50.844;4.412;2023-04-25T14:12:32;13.10;93.80
27797;DHT22;15177;50.844;4.412;2023-04-25T14:14:58;13.00;94.30
27797;DHT22;15177;50.844;4.412;2023-04-25T14:17:24;12.90;94.60
27797;DHT22;15177;50.844;4.412;2023-04-25T14:19:50;12.90;94.40
27797;DHT22;15177;50.844;4.412;2023-04-25T14:22:15;13.00;94.20
27797;DHT22;15177;50.844;4.412;2023-04-25T14:24:41;13.00;92.20
27797;DHT22;15177;50.844;4.412;2023-04-25T14:27:07;13.00;90.80
27797;DHT22;15177;50.844;4.412;2023-04-25T14:29:33;12.90;90.60
27797;DHT22;15177;50.844;4.412;2023-04-25T14:31:58;13.00;90.30
27797;DHT22;15177;50.844;4.412;2023-04-25T14:34:25;12.90;90.20
27797;DHT22;15177;50.844;4.412;2023-04-25T14:36:51;12.90;90.70
27797;DHT22;15177;50.844;4.412;2023-04-25T14:39:17;12.90;90.80
27797;DHT22;15177;50.844;4.412;2023-04-25T14:41:44;12.90;89.70
27797;DHT22;15177;50.844;4.412;2023-04-25T14:44:09;12.80;89.10
27797;DHT22;15177;50.844;4.412;2023-04-25T14:46:36;12.90;89.20
27797;DHT22;15177;50.844;4.412;2023-04-25T14:49:02;13.00;89.70
27797;DHT22;15177;50.844;4.412;2023-04-25T14:51:28;13.10;88.00
27797;DHT22;15177;50.844;4.412;2023-04-25T14:53:54;13.10;88.80
27797;DHT22;15177;50.844;4.412;2023-04-25T14:56:20;13.20;90.10
27797;DHT22;15177;50.844;4.412;2023-04-25T14:58:45;13.20;90.70
27797;DHT22;15177;50.844;4.412;2023-04-25T15:01:12;13.10;90.90
27797;DHT22;15177;50.844;4.412;2023-04-25T15:03:39;12.90;91.00
27797;DHT22;15177;50.844;4.412;2023-04-25T15:06:05;12.90;91.90
27797;DHT22;15177;50.844;4.412;2023-04-25T15:08:31;12.90;91.70
27797;DHT22;15177;50.844;4.412;2023-04-25T15:10:58;13.10;91.50
27797;DHT22;15177;50.844;4.412;2023-04-25T15:13:24;13.30;88.40
27797;DHT22;15177;50.844;4.412;2023-04-25T15:15:51;13.30;85.70
27797;DHT22;15177;50.844;4.412;2023-04-25T15:18:20;13.20;86.90
27797;DHT22;15177;50.844;4.412;2023-04-25T15:20:52;12.90;85.00
27797;DHT22;15177;50.844;4.412;2023-04-25T15:23:19;12.90;89.10
27797;DHT22;15177;50.844;4.412;2023-04-25T15:25:46;12.80;90.80
27797;DHT22;15177;50.844;4.412;2023-04-25T15:28:11;13.00;91.10
27797;DHT22;15177;50.844;4.412;2023-04-25T15:30:40;13.00;90.20
27797;DHT22;15177;50.844;4.412;2023-04-25T15:33:06;13.20;89.10
27797;DHT22;15177;50.844;4.412;2023-04-25T15:35:31;13.20;88.20
27797;DHT22;15177;50.844;4.412;2023-04-25T15:37:57;13.30;85.50
27797;DHT22;15177;50.844;4.412;2023-04-25T15:40:22;13.30;86.00
27797;DHT22;15177;50.844;4.412;2023-04-25T15:42:50;13.30;85.20
27797;DHT22;15177;50.844;4.412;2023-04-25T15:45:18;13.30;85.30